sensor_id;sensor_type;location;lat;lon;timestamp;pressure;altitude;pressure_sealevel;temperature;humidity
73692;BME280;61996;49.910;35.562;2022-11-03T00:01:07;99273.63;;;20.83;51.18
73692;BME280;61996;49.910;35.562;2022-11-03T00:04:13;99270.44;;;20.79;50.92
73692;BME280;61996;49.910;35.562;2022-11-03T00:07:18;99265.41;;;20.76;50.79
73692;BME280;61996;49.910;35.562;2022-11-03T00:10:21;99268.09;;;20.76;50.77
73692;BME280;61996;49.910;35.562;2022-11-03T00:13:24;99274.59;;;20.74;50.99
73692;BME280;61996;49.910;35.562;2022-11-03T00:16:27;99287.78;;;20.75;50.78
73692;BME280;61996;49.910;35.562;2022-11-03T00:19:31;99277.44;;;20.72;50.74
73692;BME280;61996;49.910;35.562;2022-11-03T00:22:34;99280.22;;;20.71;50.85
73692;BME280;61996;49.910;35.562;2022-11-03T00:25:37;99279.25;;;20.72;50.81
73692;BME280;61996;49.910;35.562;2022-11-03T00:28:40;99277.72;;;20.69;50.94
73692;BME280;61996;49.910;35.562;2022-11-03T00:31:43;99283.91;;;20.70;50.99
73692;BME280;61996;49.910;35.562;2022-11-03T00:34:48;99287.75;;;20.67;50.93
73692;BME280;61996;49.910;35.562;2022-11-03T00:37:50;99273.69;;;20.65;50.93
73692;BME280;61996;49.910;35.562;2022-11-03T00:40:53;99279.03;;;20.65;50.85
73692;BME280;61996;49.910;35.562;2022-11-03T00:43:56;99280.88;;;20.65;51.01
73692;BME280;61996;49.910;35.562;2022-11-03T00:46:59;99276.69;;;20.62;50.82
73692;BME280;61996;49.910;35.562;2022-11-03T00:50:03;99267.00;;;20.61;51.01
73692;BME280;61996;49.910;35.562;2022-11-03T00:53:06;99275.19;;;20.60;50.92
73692;BME280;61996;49.910;35.562;2022-11-03T00:56:09;99278.69;;;20.60;51.16
73692;BME280;61996;49.910;35.562;2022-11-03T00:59:14;99286.00;;;20.58;51.07
73692;BME280;61996;49.910;35.562;2022-11-03T01:02:17;99285.34;;;20.56;51.07
73692;BME280;61996;49.910;35.562;2022-11-03T01:05:21;99285.50;;;20.55;51.05
73692;BME280;61996;49.910;35.562;2022-11-03T01:08:41;99276.94;;;20.51;51.05
73692;BME280;61996;49.910;35.562;2022-11-03T01:11:48;99276.13;;;20.50;51.23
73692;BME280;61996;49.910;35.562;2022-11-03T01:14:52;99282.47;;;20.49;51.04
73692;BME280;61996;49.910;35.562;2022-11-03T01:17:55;99282.78;;;20.46;51.18
73692;BME280;61996;49.910;35.562;2022-11-03T01:20:59;99285.28;;;20.48;51.04
73692;BME280;61996;49.910;35.562;2022-11-03T01:24:03;99290.97;;;20.45;51.07
73692;BME280;61996;49.910;35.562;2022-11-03T01:27:06;99280.28;;;20.45;51.15
73692;BME280;61996;49.910;35.562;2022-11-03T01:30:09;99282.22;;;20.43;51.18
73692;BME280;61996;49.910;35.562;2022-11-03T01:33:12;99282.22;;;20.43;51.11
73692;BME280;61996;49.910;35.562;2022-11-03T01:36:17;99282.38;;;20.41;51.24
73692;BME280;61996;49.910;35.562;2022-11-03T01:39:19;99279.53;;;20.43;51.10
73692;BME280;61996;49.910;35.562;2022-11-03T01:42:22;99284.22;;;20.41;51.22
73692;BME280;61996;49.910;35.562;2022-11-03T01:45:25;99298.41;;;20.41;51.28
73692;BME280;61996;49.910;35.562;2022-11-03T01:48:28;99297.75;;;20.39;51.17
73692;BME280;61996;49.910;35.562;2022-11-03T01:51:33;99297.75;;;20.39;51.19
73692;BME280;61996;49.910;35.562;2022-11-03T01:54:38;99297.75;;;20.39;51.24
73692;BME280;61996;49.910;35.562;2022-11-03T01:57:43;99296.06;;;20.38;51.33
73692;BME280;61996;49.910;35.562;2022-11-03T02:00:49;99305.91;;;20.38;51.54
73692;BME280;61996;49.910;35.562;2022-11-03T02:03:54;99304.91;;;20.39;51.56
73692;BME280;61996;49.910;35.562;2022-11-03T02:07:01;99302.53;;;20.36;51.50
73692;BME280;61996;49.910;35.562;2022-11-03T02:10:08;99299.88;;;20.36;51.52
73692;BME280;61996;49.910;35.562;2022-11-03T02:13:14;99305.22;;;20.36;51.48
73692;BME280;61996;49.910;35.562;2022-11-03T02:16:19;99304.53;;;20.34;51.47
73692;BME280;61996;49.910;35.562;2022-11-03T02:19:24;99302.88;;;20.33;51.41
73692;BME280;61996;49.910;35.562;2022-11-03T02:22:34;99312.72;;;20.32;51.48
73692;BME280;61996;49.910;35.562;2022-11-03T02:25:42;99311.88;;;20.32;51.42
73692;BME280;61996;49.910;35.562;2022-11-03T02:28:45;99318.34;;;20.29;51.50
73692;BME280;61996;49.910;35.562;2022-11-03T02:31:48;99325.34;;;20.30;51.57
73692;BME280;61996;49.910;35.562;2022-11-03T02:34:54;99320.19;;;20.29;51.36
73692;BME280;61996;49.910;35.562;2022-11-03T02:37:59;99320.50;;;20.25;51.45
73692;BME280;61996;49.910;35.562;2022-11-03T02:41:06;99324.00;;;20.26;51.43
73692;BME280;61996;49.910;35.562;2022-11-03T02:44:11;99325.69;;;20.27;51.37
73692;BME280;61996;49.910;35.562;2022-11-03T02:47:15;99327.81;;;20.23;51.41
73692;BME280;61996;49.910;35.562;2022-11-03T02:50:18;99328.69;;;20.24;51.56
73692;BME280;61996;49.910;35.562;2022-11-03T02:53:22;99329.50;;;20.24;51.48
73692;BME280;61996;49.910;35.562;2022-11-03T02:56:28;99326.00;;;20.24;51.41
73692;BME280;61996;49.910;35.562;2022-11-03T02:59:33;99325.13;;;20.23;51.38
73692;BME280;61996;49.910;35.562;2022-11-03T03:02:40;99321.34;;;20.26;51.58
73692;BME280;61996;49.910;35.562;2022-11-03T03:05:45;99334.00;;;20.24;51.53
73692;BME280;61996;49.910;35.562;2022-11-03T03:08:52;99327.97;;;20.22;51.59
73692;BME280;61996;49.910;35.562;2022-11-03T03:11:57;99324.47;;;20.21;51.37
73692;BME280;61996;49.910;35.562;2022-11-03T03:15:01;99319.97;;;20.22;51.52
73692;BME280;61996;49.910;35.562;2022-11-03T03:18:08;99330.81;;;20.20;51.51
73692;BME280;61996;49.910;35.562;2022-11-03T03:21:14;99329.81;;;20.21;51.45
73692;BME280;61996;49.910;35.562;2022-11-03T03:24:20;99328.13;;;20.20;51.37
73692;BME280;61996;49.910;35.562;2022-11-03T03:27:26;99324.63;;;20.20;51.49
73692;BME280;61996;49.910;35.562;2022-11-03T03:30:30;99322.94;;;20.19;51.33
73692;BME280;61996;49.910;35.562;2022-11-03T03:33:34;99325.78;;;20.17;51.42
73692;BME280;61996;49.910;35.562;2022-11-03T03:36:42;99322.13;;;20.18;51.40
73692;BME280;61996;49.910;35.562;2022-11-03T03:39:47;99324.78;;;20.18;51.39
73692;BME280;61996;49.910;35.562;2022-11-03T03:42:54;99327.13;;;20.21;51.46
73692;BME280;61996;49.910;35.562;2022-11-03T03:45:59;99311.88;;;20.32;51.09
73692;BME280;61996;49.910;35.562;2022-11-03T03:49:03;99319.41;;;20.36;50.97
73692;BME280;61996;49.910;35.562;2022-11-03T03:52:06;99322.03;;;20.46;50.80
73692;BME280;61996;49.910;35.562;2022-11-03T03:55:12;99322.53;;;20.49;50.50
73692;BME280;61996;49.910;35.562;2022-11-03T03:58:18;99327.09;;;20.57;50.40
73692;BME280;61996;49.910;35.562;2022-11-03T04:01:21;99313.09;;;20.63;50.17
73692;BME280;61996;49.910;35.562;2022-11-03T04:04:24;99319.81;;;20.67;50.07
73692;BME280;61996;49.910;35.562;2022-11-03T04:07:27;99322.69;;;20.74;50.01
73692;BME280;61996;49.910;35.562;2022-11-03T04:10:48;99319.69;;;20.77;49.72
73692;BME280;61996;49.910;35.562;2022-11-03T04:14:06;99326.56;;;20.79;49.69
73692;BME280;61996;49.910;35.562;2022-11-03T04:17:27;99326.78;;;20.86;49.51
73692;BME280;61996;49.910;35.562;2022-11-03T04:20:51;99327.94;;;20.92;49.76
73692;BME280;61996;49.910;35.562;2022-11-03T04:24:11;99334.00;;;20.94;49.41
73692;BME280;61996;49.910;35.562;2022-11-03T04:27:25;99336.34;;;20.97;49.44
73692;BME280;61996;49.910;35.562;2022-11-03T04:30:30;99346.69;;;21.00;49.55
73692;BME280;61996;49.910;35.562;2022-11-03T04:33:32;99339.53;;;21.00;49.37
73692;BME280;61996;49.910;35.562;2022-11-03T04:36:35;99339.38;;;21.02;49.53
73692;BME280;61996;49.910;35.562;2022-11-03T04:39:38;99336.38;;;21.05;49.10
73692;BME280;61996;49.910;35.562;2022-11-03T04:42:41;99342.72;;;21.04;49.21
73692;BME280;61996;49.910;35.562;2022-11-03T04:45:46;99341.72;;;21.05;49.28
73692;BME280;61996;49.910;35.562;2022-11-03T04:48:49;99350.44;;;21.07;49.58
73692;BME280;61996;49.910;35.562;2022-11-03T04:51:51;99350.09;;;21.10;49.47
73692;BME280;61996;49.910;35.562;2022-11-03T04:54:54;99349.91;;;21.03;49.74
73692;BME280;61996;49.910;35.562;2022-11-03T04:57:57;99353.56;;;21.02;49.81
73692;BME280;61996;49.910;35.562;2022-11-03T05:01:03;99358.38;;;20.99;49.99
73692;BME280;61996;49.910;35.562;2022-11-03T05:04:07;99357.56;;;20.98;49.76
73692;BME280;61996;49.910;35.562;2022-11-03T05:07:20;99355.22;;;20.95;49.93
73692;BME280;61996;49.910;35.562;2022-11-03T05:10:24;99359.56;;;20.96;49.70
73692;BME280;61996;49.910;35.562;2022-11-03T05:13:27;99363.53;;;20.92;49.83
73692;BME280;61996;49.910;35.562;2022-11-03T05:16:32;99362.88;;;20.90;49.97
73692;BME280;61996;49.910;35.562;2022-11-03T05:19:36;99366.69;;;20.88;50.06
73692;BME280;61996;49.910;35.562;2022-11-03T05:22:41;99369.00;;;20.83;50.04
73692;BME280;61996;49.910;35.562;2022-11-03T05:25:44;99362.16;;;20.80;50.02
73692;BME280;61996;49.910;35.562;2022-11-03T05:28:49;99371.13;;;20.79;50.41
73692;BME280;61996;49.910;35.562;2022-11-03T05:31:55;99373.13;;;20.77;50.05
73692;BME280;61996;49.910;35.562;2022-11-03T05:34:58;99376.97;;;20.74;50.11
73692;BME280;61996;49.910;35.562;2022-11-03T05:38:01;99378.97;;;20.72;50.34
73692;BME280;61996;49.910;35.562;2022-11-03T05:41:07;99376.31;;;20.72;50.09
73692;BME280;61996;49.910;35.562;2022-11-03T05:44:24;99380.28;;;20.68;50.04
73692;BME280;61996;49.910;35.562;2022-11-03T05:47:33;99383.78;;;20.69;50.35
73692;BME280;61996;49.910;35.562;2022-11-03T05:50:37;99385.91;;;20.65;50.27
73692;BME280;61996;49.910;35.562;2022-11-03T05:53:41;99384.41;;;20.63;50.15
73692;BME280;61996;49.910;35.562;2022-11-03T05:56:44;99388.91;;;20.62;50.23
73692;BME280;61996;49.910;35.562;2022-11-03T05:59:48;99388.22;;;20.60;50.17
73692;BME280;61996;49.910;35.562;2022-11-03T06:02:52;99387.53;;;20.58;50.24
73692;BME280;61996;49.910;35.562;2022-11-03T06:05:58;99382.69;;;20.53;50.41
73692;BME280;61996;49.910;35.562;2022-11-03T06:09:02;99386.34;;;20.52;50.50
73692;BME280;61996;49.910;35.562;2022-11-03T06:12:05;99397.88;;;20.53;50.46
73692;BME280;61996;49.910;35.562;2022-11-03T06:15:20;99396.31;;;20.50;50.49
73692;BME280;61996;49.910;35.562;2022-11-03T06:18:28;99397.16;;;20.51;50.35
73692;BME280;61996;49.910;35.562;2022-11-03T06:21:31;99398.31;;;20.48;50.39
73692;BME280;61996;49.910;35.562;2022-11-03T06:24:34;99397.31;;;20.49;50.50
73692;BME280;61996;49.910;35.562;2022-11-03T06:27:37;99408.50;;;20.45;50.55
73692;BME280;61996;49.910;35.562;2022-11-03T06:30:40;99400.56;;;20.43;50.65
73692;BME280;61996;49.910;35.562;2022-11-03T06:33:49;99401.56;;;20.42;50.57
73692;BME280;61996;49.910;35.562;2022-11-03T06:36:54;99400.56;;;20.43;50.49
73692;BME280;61996;49.910;35.562;2022-11-03T06:39:58;99398.06;;;20.42;50.69
73692;BME280;61996;49.910;35.562;2022-11-03T06:43:09;99387.53;;;20.40;50.63
73692;BME280;61996;49.910;35.562;2022-11-03T06:46:17;99399.38;;;20.38;50.77
73692;BME280;61996;49.910;35.562;2022-11-03T06:49:24;99407.41;;;20.38;50.77
73692;BME280;61996;49.910;35.562;2022-11-03T06:52:30;99408.75;;;20.42;50.68
73692;BME280;61996;49.910;35.562;2022-11-03T06:55:33;99408.91;;;20.40;50.85
73692;BME280;61996;49.910;35.562;2022-11-03T06:58:36;99397.22;;;20.41;51.09
73692;BME280;61996;49.910;35.562;2022-11-03T07:01:38;99395.50;;;20.50;51.28
73692;BME280;61996;49.910;35.562;2022-11-03T07:04:43;99393.19;;;20.55;51.45
73692;BME280;61996;49.910;35.562;2022-11-03T07:07:46;99395.72;;;20.57;51.19
73692;BME280;61996;49.910;35.562;2022-11-03T07:10:49;99393.25;;;20.63;51.40
73692;BME280;61996;49.910;35.562;2022-11-03T07:13:54;99398.75;;;20.62;51.62
73692;BME280;61996;49.910;35.562;2022-11-03T07:16:58;99393.88;;;20.57;51.97
73692;BME280;61996;49.910;35.562;2022-11-03T07:20:04;99390.06;;;20.60;51.86
73692;BME280;61996;49.910;35.562;2022-11-03T07:23:16;99390.06;;;20.60;51.87
73692;BME280;61996;49.910;35.562;2022-11-03T07:26:19;99399.22;;;20.57;52.00
73692;BME280;61996;49.910;35.562;2022-11-03T07:29:24;99396.41;;;20.59;52.14
73692;BME280;61996;49.910;35.562;2022-11-03T07:32:29;99398.22;;;20.58;51.87
73692;BME280;61996;49.910;35.562;2022-11-03T07:35:34;99403.25;;;20.61;51.81
73692;BME280;61996;49.910;35.562;2022-11-03T07:38:58;99400.59;;;20.61;51.74
73692;BME280;61996;49.910;35.562;2022-11-03T07:42:07;99399.75;;;20.61;51.93
73692;BME280;61996;49.910;35.562;2022-11-03T07:45:29;99398.59;;;20.63;52.01
73692;BME280;61996;49.910;35.562;2022-11-03T07:48:33;99400.28;;;20.64;51.84
73692;BME280;61996;49.910;35.562;2022-11-03T07:51:39;99403.25;;;20.61;51.88
73692;BME280;61996;49.910;35.562;2022-11-03T07:54:42;99399.75;;;20.61;52.07
73692;BME280;61996;49.910;35.562;2022-11-03T07:57:46;99397.91;;;20.61;51.84
73692;BME280;61996;49.910;35.562;2022-11-03T08:00:49;99410.97;;;20.64;51.84
73692;BME280;61996;49.910;35.562;2022-11-03T08:03:58;99411.34;;;20.69;51.81
73692;BME280;61996;49.910;35.562;2022-11-03T08:07:04;99403.94;;;20.63;51.41
73692;BME280;61996;49.910;35.562;2022-11-03T08:10:07;99415.22;;;20.75;51.19
73692;BME280;61996;49.910;35.562;2022-11-03T08:13:10;99405.94;;;20.61;51.60
73692;BME280;61996;49.910;35.562;2022-11-03T08:16:13;99409.44;;;20.62;51.70
73692;BME280;61996;49.910;35.562;2022-11-03T08:19:16;99406.44;;;20.65;51.70
73692;BME280;61996;49.910;35.562;2022-11-03T08:22:20;99413.78;;;20.63;51.91
73692;BME280;61996;49.910;35.562;2022-11-03T08:25:26;99409.13;;;20.65;51.74
73692;BME280;61996;49.910;35.562;2022-11-03T08:28:29;99401.28;;;20.63;51.56
73692;BME280;61996;49.910;35.562;2022-11-03T08:31:32;99403.78;;;20.65;51.49
73692;BME280;61996;49.910;35.562;2022-11-03T08:34:35;99395.75;;;20.65;51.41
73692;BME280;61996;49.910;35.562;2022-11-03T08:37:39;99387.44;;;20.68;51.37
73692;BME280;61996;49.910;35.562;2022-11-03T08:40:42;99392.25;;;20.64;51.33
73692;BME280;61996;49.910;35.562;2022-11-03T08:43:45;99392.25;;;20.64;51.38
73692;BME280;61996;49.910;35.562;2022-11-03T08:46:48;99391.13;;;20.67;51.12
73692;BME280;61996;49.910;35.562;2022-11-03T08:49:50;99395.47;;;20.68;51.20
73692;BME280;61996;49.910;35.562;2022-11-03T08:52:54;99384.94;;;20.66;51.07
73692;BME280;61996;49.910;35.562;2022-11-03T08:55:57;99386.63;;;20.67;50.93
73692;BME280;61996;49.910;35.562;2022-11-03T08:59:00;99382.69;;;20.79;51.09
73692;BME280;61996;49.910;35.562;2022-11-03T09:02:03;99394.34;;;20.78;50.89
73692;BME280;61996;49.910;35.562;2022-11-03T09:05:06;99392.25;;;20.90;51.12
73692;BME280;61996;49.910;35.562;2022-11-03T09:08:10;99388.38;;;20.85;51.35
73692;BME280;61996;49.910;35.562;2022-11-03T09:11:33;99392.69;;;20.77;51.51
73692;BME280;61996;49.910;35.562;2022-11-03T09:14:36;99396.72;;;20.82;51.63
73692;BME280;61996;49.910;35.562;2022-11-03T09:17:39;99395.34;;;20.77;51.46
73692;BME280;61996;49.910;35.562;2022-11-03T09:20:46;99388.50;;;20.75;51.71
73692;BME280;61996;49.910;35.562;2022-11-03T09:23:50;99394.69;;;20.75;51.87
73692;BME280;61996;49.910;35.562;2022-11-03T09:26:52;99397.53;;;20.74;51.85
73692;BME280;61996;49.910;35.562;2022-11-03T09:30:02;99402.84;;;20.74;52.02
73692;BME280;61996;49.910;35.562;2022-11-03T09:33:14;99395.31;;;20.69;52.06
73692;BME280;61996;49.910;35.562;2022-11-03T09:36:17;99389.66;;;20.72;51.82
73692;BME280;61996;49.910;35.562;2022-11-03T09:39:22;99388.28;;;20.68;51.68
73692;BME280;61996;49.910;35.562;2022-11-03T09:42:25;99381.94;;;20.69;51.88
73692;BME280;61996;49.910;35.562;2022-11-03T09:45:28;99384.94;;;20.66;51.67
73692;BME280;61996;49.910;35.562;2022-11-03T09:48:31;99390.97;;;20.68;51.88
73692;BME280;61996;49.910;35.562;2022-11-03T09:51:34;99388.78;;;20.72;51.52
73692;BME280;61996;49.910;35.562;2022-11-03T09:54:39;99387.81;;;20.73;51.33
73692;BME280;61996;49.910;35.562;2022-11-03T09:57:42;99375.84;;;20.85;51.20
73692;BME280;61996;49.910;35.562;2022-11-03T10:00:45;99373.38;;;20.92;51.14
73692;BME280;61996;49.910;35.562;2022-11-03T10:03:51;99378.31;;;21.04;51.04
73692;BME280;61996;49.910;35.562;2022-11-03T10:06:56;99368.16;;;21.08;50.72
73692;BME280;61996;49.910;35.562;2022-11-03T10:10:01;99370.84;;;21.16;50.42
73692;BME280;61996;49.910;35.562;2022-11-03T10:13:04;99366.59;;;21.31;50.10
73692;BME280;61996;49.910;35.562;2022-11-03T10:16:11;99362.44;;;21.37;50.15
73692;BME280;61996;49.910;35.562;2022-11-03T10:19:17;99366.72;;;21.56;50.13
73692;BME280;61996;49.910;35.562;2022-11-03T10:22:21;99365.50;;;21.42;50.35
73692;BME280;61996;49.910;35.562;2022-11-03T10:25:29;99366.56;;;21.66;50.00
73692;BME280;61996;49.910;35.562;2022-11-03T10:28:35;99359.72;;;21.71;50.27
73692;BME280;61996;49.910;35.562;2022-11-03T10:31:38;99355.44;;;21.44;50.07
73692;BME280;61996;49.910;35.562;2022-11-03T10:34:41;99350.47;;;21.49;49.97
73692;BME280;61996;49.910;35.562;2022-11-03T10:37:44;99358.31;;;21.51;50.26
73692;BME280;61996;49.910;35.562;2022-11-03T10:40:48;99355.66;;;21.51;50.09
73692;BME280;61996;49.910;35.562;2022-11-03T10:43:58;99358.50;;;21.49;50.07
73692;BME280;61996;49.910;35.562;2022-11-03T10:47:02;99349.09;;;21.45;50.42
73692;BME280;61996;49.910;35.562;2022-11-03T10:50:18;99359.47;;;21.48;50.51
73692;BME280;61996;49.910;35.562;2022-11-03T10:53:22;99355.94;;;21.40;50.71
73692;BME280;61996;49.910;35.562;2022-11-03T10:56:31;99353.59;;;21.37;50.67
73692;BME280;61996;49.910;35.562;2022-11-03T10:59:35;99352.41;;;21.39;50.43
73692;BME280;61996;49.910;35.562;2022-11-03T11:02:39;99352.41;;;21.39;50.67
73692;BME280;61996;49.910;35.562;2022-11-03T11:05:43;99349.72;;;21.31;51.07
73692;BME280;61996;49.910;35.562;2022-11-03T11:08:46;99352.06;;;21.34;50.81
73692;BME280;61996;49.910;35.562;2022-11-03T11:21:58;99339.13;;;21.21;50.95
73692;BME280;61996;49.910;35.562;2022-11-03T11:25:01;99339.28;;;21.20;50.80
73692;BME280;61996;49.910;35.562;2022-11-03T11:28:10;99340.81;;;21.22;50.76
73692;BME280;61996;49.910;35.562;2022-11-03T11:31:26;99341.69;;;21.31;50.86
73692;BME280;61996;49.910;35.562;2022-11-03T11:34:39;99340.94;;;21.21;49.95
73692;BME280;61996;49.910;35.562;2022-11-03T11:37:43;99337.75;;;20.83;49.44
73692;BME280;61996;49.910;35.562;2022-11-03T11:40:49;99331.13;;;20.61;48.84
73692;BME280;61996;49.910;35.562;2022-11-03T11:43:52;99328.13;;;20.64;49.09
73692;BME280;61996;49.910;35.562;2022-11-03T11:46:55;99321.75;;;20.57;48.96
73692;BME280;61996;49.910;35.562;2022-11-03T11:53:37;99317.78;;;20.61;48.86
73692;BME280;61996;49.910;35.562;2022-11-03T11:56:41;99307.38;;;20.84;48.50
73692;BME280;61996;49.910;35.562;2022-11-03T11:59:45;99311.59;;;20.95;48.50
73692;BME280;61996;49.910;35.562;2022-11-03T12:02:48;99305.63;;;21.01;48.69
73692;BME280;61996;49.910;35.562;2022-11-03T12:05:52;99306.59;;;21.00;49.15
73692;BME280;61996;49.910;35.562;2022-11-03T12:09:03;99301.94;;;21.02;49.63
73692;BME280;61996;49.910;35.562;2022-11-03T12:12:07;99306.25;;;20.95;49.68
73692;BME280;61996;49.910;35.562;2022-11-03T12:18:32;99297.50;;;20.85;49.90
73692;BME280;61996;49.910;35.562;2022-11-03T12:21:43;99301.91;;;20.94;49.88
73692;BME280;61996;49.910;35.562;2022-11-03T12:24:49;99299.91;;;20.96;50.21
73692;BME280;61996;49.910;35.562;2022-11-03T12:27:52;99304.59;;;20.94;50.03
73692;BME280;61996;49.910;35.562;2022-11-03T12:30:55;99297.28;;;21.04;50.13
73692;BME280;61996;49.910;35.562;2022-11-03T12:33:57;99298.97;;;21.13;50.13
73692;BME280;61996;49.910;35.562;2022-11-03T12:37:00;99307.59;;;20.99;50.56
73692;BME280;61996;49.910;35.562;2022-11-03T12:40:05;99298.91;;;20.97;50.68
73692;BME280;61996;49.910;35.562;2022-11-03T12:43:08;99301.91;;;20.94;51.21
73692;BME280;61996;49.910;35.562;2022-11-03T12:46:11;99298.25;;;20.95;51.34
73692;BME280;61996;49.910;35.562;2022-11-03T12:49:14;99301.13;;;21.01;51.52
73692;BME280;61996;49.910;35.562;2022-11-03T12:52:16;99304.25;;;20.97;51.61
73692;BME280;61996;49.910;35.562;2022-11-03T12:55:20;99295.22;;;20.90;51.61
73692;BME280;61996;49.910;35.562;2022-11-03T12:58:23;99301.78;;;21.03;51.77
73692;BME280;61996;49.910;35.562;2022-11-03T13:01:27;99307.25;;;20.94;52.66
73692;BME280;61996;49.910;35.562;2022-11-03T13:04:30;99302.19;;;20.83;52.80
73692;BME280;61996;49.910;35.562;2022-11-03T13:07:33;99303.88;;;20.92;52.70
73692;BME280;61996;49.910;35.562;2022-11-03T13:10:37;99305.41;;;20.86;52.55
73692;BME280;61996;49.910;35.562;2022-11-03T13:13:41;99305.44;;;20.94;51.96
73692;BME280;61996;49.910;35.562;2022-11-03T13:16:43;99304.22;;;20.89;52.23
73692;BME280;61996;49.910;35.562;2022-11-03T13:19:46;99312.16;;;20.72;52.68
73692;BME280;61996;49.910;35.562;2022-11-03T13:22:55;99311.16;;;20.73;52.23
73692;BME280;61996;49.910;35.562;2022-11-03T13:25:59;99315.00;;;20.79;52.31
73692;BME280;61996;49.910;35.562;2022-11-03T13:29:02;99316.09;;;20.86;51.61
73692;BME280;61996;49.910;35.562;2022-11-03T13:32:04;99315.53;;;20.83;51.62
73692;BME280;61996;49.910;35.562;2022-11-03T13:35:08;99309.88;;;20.86;52.05
73692;BME280;61996;49.910;35.562;2022-11-03T13:38:14;99314.94;;;20.97;51.80
73692;BME280;61996;49.910;35.562;2022-11-03T13:41:18;99309.16;;;20.75;51.73
73692;BME280;61996;49.910;35.562;2022-11-03T13:44:21;99306.03;;;20.80;51.87
73692;BME280;61996;49.910;35.562;2022-11-03T13:47:24;99306.69;;;20.82;51.61
73692;BME280;61996;49.910;35.562;2022-11-03T13:50:46;99304.03;;;20.82;52.19
73692;BME280;61996;49.910;35.562;2022-11-03T13:53:51;99303.66;;;20.77;52.40
73692;BME280;61996;49.910;35.562;2022-11-03T13:57:15;99306.69;;;20.82;51.92
73692;BME280;61996;49.910;35.562;2022-11-03T14:00:38;99301.53;;;20.80;52.08
73692;BME280;61996;49.910;35.562;2022-11-03T14:03:41;99304.19;;;20.55;51.60
73692;BME280;61996;49.910;35.562;2022-11-03T14:07:03;99311.34;;;20.46;51.82
73692;BME280;61996;49.910;35.562;2022-11-03T14:10:06;99313.69;;;20.49;51.66
73692;BME280;61996;49.910;35.562;2022-11-03T14:13:11;99316.88;;;20.52;51.37
73692;BME280;61996;49.910;35.562;2022-11-03T14:16:14;99310.00;;;20.50;51.42
73692;BME280;61996;49.910;35.562;2022-11-03T14:19:17;99313.84;;;20.47;51.13
73692;BME280;61996;49.910;35.562;2022-11-03T14:22:20;99309.41;;;20.38;51.14
73692;BME280;61996;49.910;35.562;2022-11-03T14:25:32;99312.34;;;20.45;50.99
73692;BME280;61996;49.910;35.562;2022-11-03T14:28:36;99315.69;;;20.47;50.66
73692;BME280;61996;49.910;35.562;2022-11-03T14:31:39;99320.84;;;20.48;50.87
73692;BME280;61996;49.910;35.562;2022-11-03T14:34:42;99317.03;;;20.51;50.53
73692;BME280;61996;49.910;35.562;2022-11-03T14:37:45;99317.09;;;20.41;50.94
73692;BME280;61996;49.910;35.562;2022-11-03T14:40:49;99316.06;;;20.34;50.62
73692;BME280;61996;49.910;35.562;2022-11-03T14:44:10;99318.56;;;20.36;50.61
73692;BME280;61996;49.910;35.562;2022-11-03T14:47:14;99327.28;;;20.38;50.41
73692;BME280;61996;49.910;35.562;2022-11-03T14:50:18;99326.28;;;20.39;50.51
73692;BME280;61996;49.910;35.562;2022-11-03T14:53:20;99328.41;;;20.35;50.14
73692;BME280;61996;49.910;35.562;2022-11-03T14:56:24;99320.78;;;20.40;50.68
73692;BME280;61996;49.910;35.562;2022-11-03T14:59:28;99316.44;;;20.39;50.82
73692;BME280;61996;49.910;35.562;2022-11-03T15:02:31;99324.44;;;20.39;50.99
73692;BME280;61996;49.910;35.562;2022-11-03T15:05:34;99324.22;;;20.33;50.92
73692;BME280;61996;49.910;35.562;2022-11-03T15:08:45;99320.56;;;20.34;50.76
73692;BME280;61996;49.910;35.562;2022-11-03T15:11:55;99328.91;;;20.31;51.05
73692;BME280;61996;49.910;35.562;2022-11-03T15:14:59;99325.06;;;20.33;50.95
73692;BME280;61996;49.910;35.562;2022-11-03T15:18:02;99334.59;;;20.36;50.84
73692;BME280;61996;49.910;35.562;2022-11-03T15:21:05;99327.34;;;20.28;50.69
73692;BME280;61996;49.910;35.562;2022-11-03T15:24:08;99325.56;;;20.37;50.91
73692;BME280;61996;49.910;35.562;2022-11-03T15:27:32;99328.19;;;20.29;50.91
73692;BME280;61996;49.910;35.562;2022-11-03T15:30:36;99320.50;;;20.25;50.23
73692;BME280;61996;49.910;35.562;2022-11-03T15:33:39;99328.28;;;20.19;50.69
73692;BME280;61996;49.910;35.562;2022-11-03T15:36:42;99323.41;;;20.14;50.50
73692;BME280;61996;49.910;35.562;2022-11-03T15:39:45;99328.44;;;20.17;50.36
73692;BME280;61996;49.910;35.562;2022-11-03T15:42:48;99322.41;;;20.15;50.17
73692;BME280;61996;49.910;35.562;2022-11-03T15:45:52;99328.34;;;20.09;50.58
73692;BME280;61996;49.910;35.562;2022-11-03T15:48:55;99321.50;;;20.07;50.45
73692;BME280;61996;49.910;35.562;2022-11-03T15:51:58;99321.56;;;20.33;49.53
73692;BME280;61996;49.910;35.562;2022-11-03T15:55:01;99322.22;;;20.35;49.46
73692;BME280;61996;49.910;35.562;2022-11-03T15:58:04;99322.34;;;20.25;50.25
73692;BME280;61996;49.910;35.562;2022-11-03T16:01:09;99330.47;;;20.23;50.14
73692;BME280;61996;49.910;35.562;2022-11-03T16:04:12;99327.34;;;20.28;50.27
73692;BME280;61996;49.910;35.562;2022-11-03T16:07:17;99326.75;;;20.34;50.47
73692;BME280;61996;49.910;35.562;2022-11-03T16:10:20;99336.22;;;20.46;50.17
73692;BME280;61996;49.910;35.562;2022-11-03T16:13:23;99329.63;;;20.41;50.41
73692;BME280;61996;49.910;35.562;2022-11-03T16:16:27;99326.63;;;20.44;49.36
73692;BME280;61996;49.910;35.562;2022-11-03T16:19:30;99337.56;;;20.50;50.09
73692;BME280;61996;49.910;35.562;2022-11-03T16:22:33;99332.59;;;20.56;50.04
73692;BME280;61996;49.910;35.562;2022-11-03T16:25:35;99329.41;;;20.52;49.96